Time;durP1;ratioP1;P1;durP2;ratioP2;P2;SDS_P1;SDS_P2;PMS_P1;PMS_P2;Temp;Humidity;BMP_temperature;BMP_pressure;BME280_temperature;BME280_humidity;BME280_pressure;Samples;Min_cycle;Max_cycle;Signal;HPM_P1;HPM_P2
2022/12/25 00:00:21;;;;;;;0.20;0.20;;;;;;;7.26;100.00;101367.88;5000413;28;20833;-76
2022/12/25 00:02:46;;;;;;;0.20;0.20;;;;;;;7.70;100.00;101374.31;4999508;28;20026;-76
2022/12/25 00:05:12;;;;;;;0.20;0.20;;;;;;;7.55;100.00;101418.81;4997888;28;20030;-76
2022/12/25 00:07:37;;;;;;;0.20;0.20;;;;;;;7.54;100.00;101397.53;4998818;28;20021;-76
2022/12/25 00:10:03;;;;;;;0.30;0.30;;;;;;;7.44;100.00;101370.44;5002922;28;20093;-76
2022/12/25 00:12:28;;;;;;;0.20;0.20;;;;;;;7.56;100.00;101407.19;5013915;28;20113;-75
2022/12/25 00:14:54;;;;;;;0.20;0.20;;;;;;;7.47;100.00;101405.00;5020361;28;20037;-76
2022/12/25 00:17:19;;;;;;;0.20;0.20;;;;;;;7.41;100.00;101392.88;4990359;28;20061;-76
2022/12/25 00:19:44;;;;;;;0.20;0.20;;;;;;;7.44;100.00;101382.00;5003005;28;20038;-75
2022/12/25 00:22:10;;;;;;;0.20;0.20;;;;;;;7.55;100.00;101391.25;5004792;28;20133;-76
2022/12/25 00:24:35;;;;;;;0.20;0.20;;;;;;;7.57;100.00;101411.56;4999944;28;20033;-76
2022/12/25 00:27:00;;;;;;;0.20;0.20;;;;;;;7.43;100.00;101379.41;5002560;28;20034;-75
2022/12/25 00:29:26;;;;;;;0.17;0.17;;;;;;;7.55;100.00;101383.22;4998207;28;20117;-76
2022/12/25 00:31:51;;;;;;;0.20;0.20;;;;;;;7.26;100.00;101378.53;5002637;28;20022;-76
2022/12/25 00:34:16;;;;;;;0.28;0.28;;;;;;;7.49;100.00;101387.09;5020637;28;20099;-75
2022/12/25 00:36:42;;;;;;;0.20;0.20;;;;;;;7.22;100.00;101392.16;5003746;28;20484;-76
2022/12/25 00:39:07;;;;;;;0.20;0.20;;;;;;;7.47;100.00;101402.34;5006729;28;20053;-75
2022/12/25 00:44:17;;;;;;;0.20;0.20;;;;;;;7.37;100.00;101410.00;5002268;28;20075;-75
2022/12/25 00:46:42;;;;;;;0.20;0.20;;;;;;;7.53;100.00;101402.00;5005140;28;20042;-76
2022/12/25 00:49:09;;;;;;;0.10;0.10;;;;;;;7.48;100.00;101393.38;5002016;28;20025;-75
2022/12/25 00:51:34;;;;;;;0.20;0.20;;;;;;;7.47;100.00;101367.59;5003134;28;20049;-75
2022/12/25 00:54:00;;;;;;;0.10;0.10;;;;;;;7.48;100.00;101363.97;5001479;28;20105;-75
2022/12/25 00:56:25;;;;;;;0.20;0.20;;;;;;;7.38;100.00;101357.47;4986481;28;20041;-76
2022/12/25 00:58:50;;;;;;;0.20;0.20;;;;;;;7.48;100.00;101388.91;5002813;28;20061;-75
2022/12/25 01:01:16;;;;;;;0.20;0.20;;;;;;;7.44;100.00;101397.16;5003315;28;20125;-75
2022/12/25 01:03:41;;;;;;;0.10;0.10;;;;;;;7.50;100.00;101381.66;5003507;28;20033;-77
2022/12/25 01:06:07;;;;;;;0.20;0.20;;;;;;;7.60;100.00;101387.34;4987447;28;20026;-75
2022/12/25 01:08:36;;;;;;;0.20;0.20;;;;;;;7.37;100.00;101355.72;4988968;28;20033;-76
2022/12/25 01:11:04;;;;;;;0.20;0.20;;;;;;;7.98;100.00;101391.44;5004858;28;20085;-76
2022/12/25 01:13:30;;;;;;;0.20;0.20;;;;;;;7.63;100.00;101365.81;4999173;28;20047;-77
2022/12/25 01:15:56;;;;;;;0.20;0.20;;;;;;;7.64;100.00;101380.00;5003438;28;20756;-76
2022/12/25 01:18:22;;;;;;;0.20;0.20;;;;;;;7.42;100.00;101365.19;4989340;28;20029;-75
2022/12/25 01:20:48;;;;;;;0.20;0.20;;;;;;;7.95;100.00;101389.78;5002337;28;20515;-75
2022/12/25 01:23:13;;;;;;;0.20;0.20;;;;;;;7.66;100.00;101370.09;5004837;28;20117;-76
2022/12/25 01:25:39;;;;;;;0.20;0.20;;;;;;;7.87;100.00;101397.41;5004263;28;20026;-75
2022/12/25 01:28:05;;;;;;;0.20;0.20;;;;;;;7.91;100.00;101408.78;4986695;28;20030;-76
2022/12/25 01:30:31;;;;;;;0.20;0.20;;;;;;;7.48;100.00;101380.91;4988236;28;20518;-76
2022/12/25 01:32:56;;;;;;;0.10;0.10;;;;;;;7.40;100.00;101379.59;5000635;28;20044;-76
2022/12/25 01:35:22;;;;;;;0.10;0.10;;;;;;;7.47;100.00;101375.63;4986702;28;20164;-76
2022/12/25 01:37:47;;;;;;;0.20;0.20;;;;;;;7.63;100.00;101387.19;4988263;28;20200;-75
2022/12/25 01:40:12;;;;;;;0.20;0.20;;;;;;;7.78;100.00;101389.91;5002865;28;20377;-76
2022/12/25 01:42:38;;;;;;;0.10;0.10;;;;;;;8.06;100.00;101399.03;5000221;28;20484;-75
2022/12/25 01:45:36;;;;;;;0.20;0.20;;;;;;;7.86;100.00;101403.72;5001089;28;20030;-76
2022/12/25 01:48:05;;;;;;;0.10;0.10;;;;;;;7.85;100.00;101412.69;5000908;28;20026;-75
2022/12/25 01:50:31;;;;;;;0.20;0.20;;;;;;;7.71;100.00;101383.19;4984959;28;20073;-76
2022/12/25 01:52:57;;;;;;;0.10;0.10;;;;;;;7.73;100.00;101397.34;5003142;28;20034;-76
2022/12/25 01:55:23;;;;;;;0.10;0.10;;;;;;;7.75;100.00;101390.97;5000975;28;20076;-76
2022/12/25 01:57:48;;;;;;;0.10;0.10;;;;;;;7.79;100.00;101392.53;4996409;28;20033;-75
2022/12/25 02:00:15;;;;;;;0.10;0.10;;;;;;;7.81;100.00;101398.63;4999942;28;20160;-76
2022/12/25 02:02:41;;;;;;;0.20;0.20;;;;;;;7.65;100.00;101379.94;4985124;28;20030;-75
2022/12/25 02:05:26;;;;;;;0.13;0.13;;;;;;;7.92;100.00;101407.84;5013247;28;20029;-75
2022/12/25 02:07:51;;;;;;;0.10;0.10;;;;;;;7.87;100.00;101404.56;5001571;28;20064;-76
2022/12/25 02:10:17;;;;;;;0.10;0.10;;;;;;;7.61;100.00;101413.13;4998950;28;20678;-76
2022/12/25 02:12:43;;;;;;;0.20;0.20;;;;;;;7.54;100.00;101401.06;5010117;28;20033;-76
2022/12/25 02:15:16;;;;;;;0.10;0.10;;;;;;;7.67;100.00;101408.41;4997207;28;20117;-76
2022/12/25 02:17:58;;;;;;;0.20;0.20;;;;;;;7.82;100.00;101426.22;5015509;28;20033;-75
2022/12/25 02:20:38;;;;;;;0.20;0.20;;;;;;;7.84;100.00;101424.34;5009605;28;20031;-76
2022/12/25 02:23:33;;;;;;;0.20;0.20;;;;;;;7.75;100.00;101423.03;5012944;28;20033;-75
2022/12/25 02:26:26;;;;;;;0.20;0.20;;;;;;;7.67;100.00;101432.44;5001292;28;20037;-75
2022/12/25 02:28:58;;;;;;;0.20;0.20;;;;;;;7.92;100.00;101426.56;5001323;28;20025;-76
2022/12/25 02:31:35;;;;;;;0.20;0.20;;;;;;;7.79;100.00;101427.28;5005166;28;20064;-76
2022/12/25 02:34:05;;;;;;;0.20;0.20;;;;;;;8.08;100.00;101423.88;4994227;28;20088;-75
2022/12/25 02:36:39;;;;;;;0.20;0.20;;;;;;;7.91;100.00;101419.47;4999228;28;20037;-75
2022/12/25 02:41:59;;;;;;;0.10;0.10;;;;;;;8.24;100.00;101415.81;5006061;28;20076;-76
2022/12/25 03:06:41;;;;;;;0.15;0.15;;;;;;;7.90;100.00;101412.41;5005523;28;20578;-76
2022/12/25 03:07:08;;;;;;;0.20;0.20;;;;;;;7.68;100.00;101362.84;5006760;28;20048;-76
2022/12/25 03:12:41;;;;;;;0.20;0.20;;;;;;;7.70;100.00;101365.44;5008047;28;20100;-75
2022/12/25 03:17:55;;;;;;;0.20;0.20;;;;;;;7.57;100.00;101341.22;5014408;28;20080;-76
2022/12/25 03:28:32;;;;;;;0.15;0.15;;;;;;;7.37;100.00;101299.63;5014377;28;20040;-75
2022/12/25 03:31:12;;;;;;;0.10;0.10;;;;;;;7.32;100.00;101321.25;5007103;28;20041;-76
2022/12/25 04:37:42;;;;;;;0.20;0.20;;;;;;;6.73;100.00;101289.78;4989506;28;20037;-75
2022/12/25 04:40:08;;;;;;;0.17;0.17;;;;;;;6.83;100.00;101293.66;5013390;28;20033;-75
2022/12/25 04:42:33;;;;;;;0.15;0.15;;;;;;;6.90;100.00;101327.09;4992146;28;20068;-75
2022/12/25 04:44:58;;;;;;;0.15;0.15;;;;;;;6.64;100.00;101300.94;5006045;28;20025;-75
2022/12/25 04:47:24;;;;;;;0.10;0.10;;;;;;;6.77;100.00;101326.00;5009515;28;20069;-76
2022/12/25 04:49:49;;;;;;;0.10;0.10;;;;;;;6.84;100.00;101331.91;5010172;28;20051;-75
2022/12/25 04:52:14;;;;;;;0.10;0.10;;;;;;;6.58;100.00;101303.00;4998780;28;20029;-75
2022/12/25 04:54:40;;;;;;;0.05;0.05;;;;;;;6.37;100.00;101286.31;5006276;28;20057;-75
2022/12/25 04:57:05;;;;;;;0.13;0.13;;;;;;;6.52;100.00;101292.66;4988492;28;20030;-75
2022/12/25 04:59:30;;;;;;;0.10;0.10;;;;;;;6.38;100.00;101296.03;5007381;28;20037;-75
2022/12/25 05:01:56;;;;;;;0.15;0.15;;;;;;;6.35;100.00;101290.03;5006596;28;20029;-75
2022/12/25 05:04:21;;;;;;;0.20;0.20;;;;;;;6.49;100.00;101324.81;5004440;28;20077;-75
2022/12/25 05:06:46;;;;;;;0.20;0.20;;;;;;;6.39;100.00;101308.44;5004203;28;20485;-75
2022/12/25 05:09:12;;;;;;;0.20;0.20;;;;;;;6.22;100.00;101287.13;5008588;28;20472;-75
2022/12/25 05:11:37;;;;;;;0.10;0.10;;;;;;;6.33;100.00;101315.91;5003624;28;20034;-76
2022/12/25 05:14:02;;;;;;;0.10;0.10;;;;;;;6.28;100.00;101317.00;5005688;28;20029;-75
2022/12/25 05:16:28;;;;;;;0.20;0.20;;;;;;;6.26;100.00;101321.56;5008461;28;20045;-75
2022/12/25 05:18:53;;;;;;;0.10;0.10;;;;;;;6.11;100.00;101296.53;5006278;28;20068;-75
2022/12/25 05:21:18;;;;;;;0.17;0.17;;;;;;;6.22;100.00;101306.69;5009294;28;20499;-74
2022/12/25 05:23:47;;;;;;;0.10;0.10;;;;;;;6.37;100.00;101313.00;5010794;28;20045;-75
2022/12/25 05:26:23;;;;;;;0.10;0.10;;;;;;;6.35;100.00;101317.56;5000532;28;20036;-75
2022/12/25 05:28:49;;;;;;;0.10;0.10;;;;;;;6.27;100.00;101314.44;5004964;28;20029;-75
2022/12/25 05:31:14;;;;;;;0.10;0.10;;;;;;;6.14;100.00;101285.72;4996930;28;20380;-75
2022/12/25 05:33:40;;;;;;;0.10;0.10;;;;;;;6.41;100.00;101311.88;5001832;28;20034;-75
2022/12/25 05:36:07;;;;;;;0.20;0.20;;;;;;;6.25;100.00;101300.31;5002130;28;20443;-74
2022/12/25 05:38:33;;;;;;;0.10;0.10;;;;;;;6.03;100.00;101298.78;5003219;28;20036;-75
2022/12/25 05:40:58;;;;;;;0.20;0.20;;;;;;;5.89;100.00;101283.44;5001701;28;20014;-75
2022/12/25 05:43:24;;;;;;;0.10;0.10;;;;;;;5.78;100.00;101264.47;5000876;28;20660;-75
2022/12/25 05:45:49;;;;;;;0.15;0.15;;;;;;;5.93;100.00;101295.69;5005474;28;20084;-75
2022/12/25 05:48:15;;;;;;;0.13;0.13;;;;;;;5.89;100.00;101267.47;5006690;28;20041;-75
2022/12/25 05:50:41;;;;;;;0.10;0.10;;;;;;;5.87;100.00;101253.34;4999680;28;20043;-75
2022/12/25 05:53:07;;;;;;;0.15;0.15;;;;;;;6.14;100.00;101272.41;5007775;28;20037;-76
2022/12/25 05:55:34;;;;;;;0.20;0.20;;;;;;;6.09;100.00;101253.09;4998670;28;20041;-75
2022/12/25 05:58:00;;;;;;;0.10;0.10;;;;;;;6.36;100.00;101273.09;5018496;28;20026;-75
2022/12/25 06:00:25;;;;;;;0.10;0.10;;;;;;;6.43;100.00;101280.66;5004920;28;20135;-75
2022/12/25 06:02:51;;;;;;;0.10;0.10;;;;;;;6.48;100.00;101253.75;5002341;28;20026;-75
2022/12/25 06:05:16;;;;;;;0.10;0.10;;;;;;;6.54;100.00;101260.56;5004197;28;20372;-75
2022/12/25 06:07:41;;;;;;;0.20;0.20;;;;;;;6.86;100.00;101261.47;5003862;28;20095;-75
2022/12/25 06:10:07;;;;;;;0.10;0.10;;;;;;;6.80;100.00;101237.78;5002541;28;20080;-75
2022/12/25 06:12:33;;;;;;;0.10;0.10;;;;;;;7.05;100.00;101249.75;4999931;28;20358;-75
2022/12/25 06:14:58;;;;;;;0.15;0.15;;;;;;;6.88;100.00;101240.88;5003078;28;20424;-75
2022/12/25 06:17:25;;;;;;;0.20;0.20;;;;;;;7.02;100.00;101239.22;5002351;28;20507;-75
2022/12/25 06:19:50;;;;;;;0.10;0.10;;;;;;;6.94;100.00;101223.66;5002865;28;20030;-75
2022/12/25 06:22:15;;;;;;;0.10;0.10;;;;;;;6.97;100.00;101246.66;5001443;28;20022;-76
2022/12/25 06:24:41;;;;;;;0.13;0.13;;;;;;;7.00;100.00;101227.81;5003753;28;20026;-75
2022/12/25 06:27:06;;;;;;;0.10;0.10;;;;;;;7.02;100.00;101233.88;5003481;28;20025;-75
2022/12/25 06:29:31;;;;;;;0.10;0.10;;;;;;;6.96;100.00;101242.28;5003952;28;20488;-75
2022/12/25 06:31:57;;;;;;;0.20;0.20;;;;;;;6.95;100.00;101240.56;4998665;28;20332;-75
2022/12/25 06:34:24;;;;;;;0.10;0.10;;;;;;;7.03;100.00;101224.94;5006910;28;20050;-75
2022/12/25 06:36:49;;;;;;;0.10;0.10;;;;;;;7.01;100.00;101217.03;5002882;28;20044;-75
2022/12/25 06:39:14;;;;;;;0.10;0.10;;;;;;;7.13;100.00;101234.16;5003005;28;20038;-75
2022/12/25 06:41:40;;;;;;;0.10;0.10;;;;;;;7.14;100.00;101225.19;4986453;28;20014;-75
2022/12/25 06:44:05;;;;;;;0.10;0.10;;;;;;;7.28;100.00;101232.41;4997039;28;20041;-76
2022/12/25 06:46:31;;;;;;;0.10;0.10;;;;;;;7.05;100.00;101207.03;4994474;28;20121;-76
2022/12/25 06:48:57;;;;;;;0.10;0.10;;;;;;;7.24;100.00;101209.50;5009431;28;20033;-75
2022/12/25 06:51:29;;;;;;;0.10;0.10;;;;;;;7.17;100.00;101201.00;4993000;28;20457;-75
2022/12/25 06:53:55;;;;;;;0.10;0.10;;;;;;;7.29;100.00;101198.53;4991642;28;20206;-75
2022/12/25 06:56:23;;;;;;;0.10;0.10;;;;;;;7.30;100.00;101206.47;4991295;28;20479;-76
2022/12/25 06:58:51;;;;;;;0.10;0.10;;;;;;;7.13;100.00;101195.94;4982662;28;20030;-75
2022/12/25 07:01:26;;;;;;;0.10;0.10;;;;;;;7.38;100.00;101214.03;4998248;28;20032;-75
2022/12/25 07:04:03;;;;;;;0.10;0.10;;;;;;;7.11;100.00;101150.59;4996386;28;20080;-74
2022/12/25 07:06:29;;;;;;;0.10;0.10;;;;;;;7.33;100.00;101194.75;5001257;28;20048;-75
2022/12/25 07:08:54;;;;;;;0.10;0.10;;;;;;;7.27;100.00;101187.97;4997435;28;20057;-75
2022/12/25 07:11:20;;;;;;;0.10;0.10;;;;;;;7.29;100.00;101182.50;4996442;28;20026;-75
2022/12/25 07:13:46;;;;;;;0.10;0.10;;;;;;;7.20;100.00;101157.22;4997891;28;20037;-76
2022/12/25 07:16:11;;;;;;;0.10;0.10;;;;;;;7.45;100.00;101196.72;4998364;28;20071;-76
2022/12/25 07:18:37;;;;;;;0.20;0.20;;;;;;;7.17;100.00;101157.38;4993734;28;20068;-75
2022/12/25 07:21:07;;;;;;;0.20;0.20;;;;;;;7.25;100.00;101165.81;4997168;28;20072;-75
2022/12/25 07:23:32;;;;;;;0.10;0.10;;;;;;;7.29;100.00;101177.16;4995785;28;20476;-75
2022/12/25 07:25:59;;;;;;;0.10;0.10;;;;;;;7.28;100.00;101204.88;4981164;28;20022;-76
2022/12/25 07:28:25;;;;;;;0.10;0.10;;;;;;;7.38;100.00;101210.53;4994435;28;20033;-75
2022/12/25 07:30:50;;;;;;;0.10;0.10;;;;;;;7.37;100.00;101195.44;4978607;28;20026;-76
2022/12/25 07:33:16;;;;;;;0.10;0.10;;;;;;;7.36;100.00;101215.94;4997957;28;20037;-75
2022/12/25 07:35:42;;;;;;;0.10;0.10;;;;;;;7.22;100.00;101195.38;4998987;28;20543;-76
2022/12/25 07:38:07;;;;;;;0.10;0.10;;;;;;;7.38;100.00;101222.06;4990391;28;20457;-75
2022/12/25 07:40:32;;;;;;;0.13;0.13;;;;;;;7.27;100.00;101198.66;4993094;28;20030;-75
2022/12/25 07:42:58;;;;;;;0.20;0.20;;;;;;;7.36;100.00;101213.28;4994645;28;20547;-75
2022/12/25 07:45:23;;;;;;;0.10;0.10;;;;;;;7.20;100.00;101200.81;5004648;28;20345;-75
2022/12/25 07:47:49;;;;;;;0.10;0.10;;;;;;;7.17;100.00;101192.97;4987160;28;20116;-76
2022/12/25 07:50:15;;;;;;;0.20;0.20;;;;;;;7.26;100.00;101194.25;4999686;28;20034;-75
2022/12/25 07:52:40;;;;;;;0.10;0.10;;;;;;;7.29;100.00;101162.03;5016300;28;20034;-75
2022/12/25 07:55:05;;;;;;;0.20;0.20;;;;;;;7.40;100.00;101168.56;5004725;28;20171;-75
2022/12/25 07:57:31;;;;;;;0.15;0.15;;;;;;;7.45;100.00;101186.03;4989734;28;20056;-75
2022/12/25 07:59:56;;;;;;;0.20;0.20;;;;;;;7.37;100.00;101169.56;4996156;28;20037;-75
2022/12/25 08:02:27;;;;;;;0.10;0.10;;;;;;;7.38;100.00;101183.81;4997110;28;20225;-75
2022/12/25 08:04:53;;;;;;;0.10;0.10;;;;;;;7.37;100.00;101174.91;4998108;28;20025;-76
2022/12/25 08:07:18;;;;;;;0.20;0.20;;;;;;;7.54;100.00;101207.81;4978516;28;20041;-75
2022/12/25 08:09:43;;;;;;;0.10;0.10;;;;;;;7.60;100.00;101226.13;4994830;28;20079;-76
2022/12/25 08:12:09;;;;;;;0.10;0.10;;;;;;;7.64;100.00;101239.25;4993211;28;20504;-75
2022/12/25 08:14:34;;;;;;;0.10;0.10;;;;;;;7.78;100.00;101249.13;5008034;28;20065;-75
2022/12/25 08:16:59;;;;;;;0.10;0.10;;;;;;;7.59;100.00;101229.75;4991947;28;20473;-76
2022/12/25 08:19:24;;;;;;;0.10;0.10;;;;;;;7.61;100.00;101222.50;4991713;28;20045;-75
2022/12/25 08:21:50;;;;;;;0.10;0.10;;;;;;;7.61;100.00;101215.38;5000504;28;20457;-75
2022/12/25 08:24:15;;;;;;;0.10;0.10;;;;;;;7.61;100.00;101217.16;5002602;28;20038;-76
2022/12/25 08:26:40;;;;;;;0.10;0.10;;;;;;;7.63;100.00;101234.84;4994429;28;20084;-75
2022/12/25 08:29:06;;;;;;;0.10;0.10;;;;;;;7.52;100.00;101225.75;4977922;28;20076;-75
2022/12/25 08:31:33;;;;;;;0.10;0.10;;;;;;;7.72;100.00;101249.47;4992837;28;20483;-75
2022/12/25 08:34:01;;;;;;;0.10;0.10;;;;;;;7.74;100.00;101244.03;4978846;28;21311;-75
2022/12/25 08:36:26;;;;;;;0.10;0.10;;;;;;;7.75;100.00;101235.06;4978351;28;20038;-75
2022/12/25 08:38:52;;;;;;;0.10;0.10;;;;;;;7.57;100.00;101215.63;5001886;28;20029;-75
2022/12/25 08:41:17;;;;;;;0.20;0.20;;;;;;;7.77;100.00;101241.16;5017421;28;20420;-75
2022/12/25 08:43:42;;;;;;;0.10;0.10;;;;;;;7.64;100.00;101219.66;4994347;28;20038;-75
2022/12/25 08:46:08;;;;;;;0.10;0.10;;;;;;;7.61;100.00;101214.50;4982934;28;20116;-75
2022/12/25 08:48:34;;;;;;;0.10;0.10;;;;;;;7.74;100.00;101236.00;4997296;28;20060;-76
2022/12/25 08:50:59;;;;;;;0.10;0.10;;;;;;;7.65;100.00;101232.06;5002361;28;20068;-75
2022/12/25 08:53:25;;;;;;;0.10;0.10;;;;;;;7.78;100.00;101233.09;4999781;28;20531;-75
2022/12/25 08:55:58;;;;;;;0.10;0.10;;;;;;;7.62;100.00;101224.22;5001749;28;20041;-75
2022/12/25 08:58:23;;;;;;;0.10;0.10;;;;;;;7.63;100.00;101226.84;5015040;28;20077;-75
2022/12/25 09:00:49;;;;;;;0.10;0.10;;;;;;;7.64;100.00;101227.69;5001824;28;20588;-75
2022/12/25 09:03:14;;;;;;;0.10;0.10;;;;;;;7.65;100.00;101238.28;4993752;28;20064;-75
2022/12/25 09:05:39;;;;;;;0.10;0.10;;;;;;;7.65;100.00;101230.28;5000881;28;20076;-75
2022/12/25 09:08:05;;;;;;;0.10;0.10;;;;;;;7.52;100.00;101204.38;5000977;28;20065;-75
2022/12/25 09:10:30;;;;;;;0.10;0.10;;;;;;;7.67;100.00;101213.28;4997854;28;20054;-76
2022/12/25 09:12:56;;;;;;;0.10;0.10;;;;;;;7.49;100.00;101195.59;5014721;28;20523;-76
2022/12/25 09:15:21;;;;;;;0.10;0.10;;;;;;;7.71;100.00;101214.81;4997846;28;20058;-75
2022/12/25 09:17:46;;;;;;;0.20;0.20;;;;;;;7.80;100.00;101214.25;4996442;28;20030;-76
2022/12/25 09:20:12;;;;;;;0.10;0.10;;;;;;;7.99;100.00;101195.28;5000756;28;20061;-75
2022/12/25 09:22:37;;;;;;;0.10;0.10;;;;;;;8.00;100.00;101221.09;5002127;28;20065;-75
2022/12/25 09:25:02;;;;;;;0.10;0.10;;;;;;;7.88;100.00;101216.47;4997819;28;20120;-75
2022/12/25 09:27:28;;;;;;;0.13;0.13;;;;;;;7.76;100.00;101199.34;4998850;28;20038;-76
2022/12/25 09:29:53;;;;;;;0.10;0.10;;;;;;;7.91;100.00;101245.69;4998873;28;20022;-75
2022/12/25 09:32:18;;;;;;;0.10;0.10;;;;;;;7.88;100.00;101248.56;4991398;28;20720;-76
2022/12/25 09:34:44;;;;;;;0.10;0.10;;;;;;;7.88;100.00;101235.19;4998918;28;21031;-75
2022/12/25 09:37:09;;;;;;;0.10;0.10;;;;;;;7.99;100.00;101230.06;4996819;28;20037;-75
2022/12/25 09:39:35;;;;;;;0.10;0.10;;;;;;;8.11;100.00;101239.16;4995031;28;20113;-75
2022/12/25 09:42:09;;;;;;;0.10;0.10;;;;;;;8.17;100.00;101233.44;5009884;28;20025;-75
2022/12/25 09:44:36;;;;;;;;;;;;;;;8.20;100.00;101246.63;4998664;28;20025;-75
2022/12/25 09:47:04;;;;;;;0.10;0.10;;;;;;;8.08;100.00;101256.22;4998240;28;19926;-76
2022/12/25 09:49:46;;;;;;;0.10;0.10;;;;;;;8.02;100.00;101192.44;4994250;28;20030;-76
2022/12/25 09:52:17;;;;;;;0.10;0.10;;;;;;;8.23;100.00;101205.44;4990235;28;20038;-76
2022/12/25 09:54:43;;;;;;;0.13;0.13;;;;;;;8.29;100.00;101205.06;4993112;28;20034;-76
2022/12/25 09:57:12;;;;;;;0.10;0.10;;;;;;;8.37;100.00;101207.25;4996768;28;20025;-75
2022/12/25 09:59:38;;;;;;;0.10;0.10;;;;;;;8.44;100.00;101207.72;4993015;28;20044;-75
2022/12/25 10:02:29;;;;;;;0.10;0.10;;;;;;;8.13;100.00;101204.25;4992123;28;20472;-75
2022/12/25 10:05:36;;;;;;;0.10;0.10;;;;;;;8.05;100.00;101186.91;4978060;28;20041;-75
2022/12/25 10:08:08;;;;;;;0.13;0.13;;;;;;;8.06;100.00;101185.94;4985571;28;20437;-76
2022/12/25 10:10:40;;;;;;;0.10;0.10;;;;;;;8.03;100.00;101177.22;4997052;28;20412;-75
2022/12/25 10:13:21;;;;;;;0.10;0.10;;;;;;;8.02;100.00;101168.38;4994479;28;20029;-76
2022/12/25 10:16:14;;;;;;;0.10;0.10;;;;;;;8.06;100.00;101177.94;4994505;28;20041;-76
2022/12/25 10:18:54;;;;;;;0.10;0.10;;;;;;;8.38;100.00;101192.91;4968389;28;20042;-77
2022/12/25 10:21:21;;;;;;;0.10;0.10;;;;;;;8.33;100.00;101187.84;4989624;28;20037;-76
2022/12/25 10:23:47;;;;;;;0.10;0.10;;;;;;;8.38;100.00;101158.97;5011895;28;20440;-76
2022/12/25 10:26:14;;;;;;;0.10;0.10;;;;;;;8.17;100.00;101137.13;4992730;28;20385;-75
2022/12/25 10:28:45;;;;;;;0.10;0.10;;;;;;;8.63;100.00;101167.28;4998955;28;20055;-75
2022/12/25 10:31:19;;;;;;;0.10;0.10;;;;;;;8.23;100.00;101167.97;4992902;28;20092;-75
2022/12/25 10:33:44;;;;;;;0.10;0.10;;;;;;;8.14;100.00;101134.66;4977189;28;20495;-75
2022/12/25 10:36:10;;;;;;;0.10;0.10;;;;;;;8.23;100.00;101152.78;4994653;28;20149;-76
2022/12/25 10:38:35;;;;;;;0.10;0.10;;;;;;;8.15;100.00;101146.19;5010036;28;20145;-76
2022/12/25 10:41:19;;;;;;;0.10;0.10;;;;;;;8.07;100.00;101154.69;4996191;28;20084;-76
2022/12/25 10:43:50;;;;;;;0.10;0.10;;;;;;;8.19;100.00;101145.94;4993444;28;20068;-75
2022/12/25 10:46:16;;;;;;;0.10;0.10;;;;;;;8.41;100.00;101152.59;4991450;28;20060;-75
2022/12/25 10:48:46;;;;;;;0.10;0.10;;;;;;;8.20;100.00;101155.66;4996201;28;20793;-75
2022/12/25 10:51:12;;;;;;;0.10;0.10;;;;;;;8.02;100.00;101135.41;4999585;28;20037;-75
2022/12/25 10:53:40;;;;;;;0.10;0.10;;;;;;;8.15;100.00;101165.78;4998841;28;20083;-75
2022/12/25 10:56:07;;;;;;;0.10;0.10;;;;;;;8.14;100.00;101158.72;4994930;28;20068;-75
2022/12/25 10:58:32;;;;;;;0.10;0.10;;;;;;;8.05;100.00;101151.25;4976920;28;20076;-75
2022/12/25 11:01:01;;;;;;;0.10;0.10;;;;;;;8.11;100.00;101164.25;5010280;28;20389;-76
2022/12/25 11:03:44;;;;;;;0.00;0.00;;;;;;;8.20;100.00;101152.13;4989021;28;20040;-75
2022/12/25 11:06:30;;;;;;;0.10;0.10;;;;;;;8.24;100.00;101132.25;4993209;28;20060;-75
2022/12/25 11:08:57;;;;;;;0.00;0.00;;;;;;;8.07;100.00;101094.06;4983684;28;20402;-75
2022/12/25 11:11:23;;;;;;;0.10;0.10;;;;;;;8.23;100.00;101103.78;4994401;28;20424;-75
2022/12/25 11:13:53;;;;;;;0.10;0.10;;;;;;;8.27;100.00;101110.66;4982516;28;20030;-75
2022/12/25 11:16:36;;;;;;;0.10;0.10;;;;;;;8.29;100.00;101119.44;4995846;28;20036;-76
2022/12/25 11:19:02;;;;;;;0.10;0.10;;;;;;;8.36;100.00;101117.22;4998674;28;20504;-76
2022/12/25 11:21:29;;;;;;;0.10;0.10;;;;;;;8.39;100.00;101114.38;4993654;28;20068;-74
2022/12/25 11:24:05;;;;;;;0.10;0.10;;;;;;;8.39;100.00;101099.16;4976836;28;20221;-73
2022/12/25 11:26:45;;;;;;;0.10;0.10;;;;;;;8.46;100.00;101093.41;4995922;28;20089;-74
2022/12/25 11:29:32;;;;;;;0.05;0.05;;;;;;;8.49;100.00;101093.25;4996019;28;20408;-75
2022/12/25 11:31:59;;;;;;;0.10;0.10;;;;;;;8.32;100.00;101070.22;4999147;28;20615;-73
2022/12/25 11:34:34;;;;;;;0.10;0.10;;;;;;;8.30;100.00;101064.13;4989409;28;20030;-73
2022/12/25 11:37:01;;;;;;;0.10;0.10;;;;;;;8.32;100.00;101055.03;5010351;28;20025;-74
2022/12/25 11:39:28;;;;;;;0.10;0.10;;;;;;;8.46;100.00;101056.81;4995151;28;20030;-74
2022/12/25 11:42:14;;;;;;;0.00;0.00;;;;;;;8.45;100.00;101064.94;4996049;28;20025;-74
2022/12/25 11:44:44;;;;;;;0.10;0.10;;;;;;;8.42;100.00;101057.97;4995770;28;20116;-73
2022/12/25 11:47:18;;;;;;;0.10;0.10;;;;;;;8.44;100.00;101039.13;4999376;28;20411;-74
2022/12/25 11:49:52;;;;;;;0.10;0.10;;;;;;;8.46;100.00;101047.91;4995087;28;20244;-74
2022/12/25 11:52:18;;;;;;;0.10;0.10;;;;;;;8.20;100.00;101021.06;4992624;28;20484;-73
2022/12/25 11:54:53;;;;;;;0.10;0.10;;;;;;;8.26;100.00;101048.25;4993144;28;21956;-74
2022/12/25 11:57:19;;;;;;;0.10;0.10;;;;;;;8.17;100.00;101056.03;4991571;28;20655;-75
2022/12/25 11:59:52;;;;;;;0.10;0.10;;;;;;;8.21;100.00;101054.88;5012505;28;20040;-75
2022/12/25 12:02:31;;;;;;;0.10;0.10;;;;;;;8.18;100.00;101034.53;4995429;28;20876;-75
2022/12/25 12:05:07;;;;;;;0.10;0.10;;;;;;;8.26;100.00;101031.38;5010808;28;20029;-75
2022/12/25 12:07:34;;;;;;;0.10;0.10;;;;;;;8.07;100.00;101003.16;5013780;28;20026;-75
2022/12/25 12:10:19;;;;;;;0.10;0.10;;;;;;;8.17;100.00;101024.81;4997690;28;20669;-75
2022/12/25 12:13:09;;;;;;;0.10;0.10;;;;;;;7.87;100.00;100975.00;4991188;28;20034;-75
2022/12/25 12:15:42;;;;;;;0.10;0.10;;;;;;;7.96;100.00;100978.91;4994337;28;20069;-75
2022/12/25 12:18:20;;;;;;;0.10;0.10;;;;;;;8.24;100.00;101002.03;4995471;28;20044;-75
2022/12/25 12:21:00;;;;;;;0.10;0.10;;;;;;;8.21;100.00;101002.22;4992219;28;20018;-75
2022/12/25 12:23:26;;;;;;;0.10;0.10;;;;;;;8.08;100.00;100996.81;4989581;28;20681;-75
2022/12/25 12:25:52;;;;;;;0.10;0.10;;;;;;;8.19;100.00;101011.31;4992775;28;20025;-75
2022/12/25 12:28:28;;;;;;;0.10;0.10;;;;;;;8.14;100.00;101003.59;4998298;28;20555;-75
2022/12/25 12:31:03;;;;;;;0.10;0.10;;;;;;;8.23;100.00;101004.81;5000426;28;20041;-75
2022/12/25 12:33:35;;;;;;;0.10;0.10;;;;;;;8.10;100.00;100996.72;4997696;28;20610;-75
2022/12/25 12:36:02;;;;;;;0.10;0.10;;;;;;;8.18;100.00;101023.84;4991424;28;20399;-75
2022/12/25 12:38:27;;;;;;;0.10;0.10;;;;;;;7.99;100.00;100988.53;5014834;28;20041;-75
2022/12/25 12:40:59;;;;;;;0.10;0.10;;;;;;;8.17;100.00;101018.56;4997760;28;20076;-75
2022/12/25 12:43:37;;;;;;;0.20;0.20;;;;;;;8.23;100.00;101008.31;4996535;28;20065;-75
2022/12/25 12:46:07;;;;;;;0.10;0.10;;;;;;;8.22;100.00;101001.25;5010655;28;20037;-75
2022/12/25 12:48:44;;;;;;;0.10;0.10;;;;;;;8.23;100.00;100988.75;4994955;28;20021;-75
2022/12/25 12:51:11;;;;;;;0.10;0.10;;;;;;;8.29;100.00;100983.00;5013748;28;20062;-75
2022/12/25 12:53:39;;;;;;;0.10;0.10;;;;;;;8.38;100.00;100981.53;4997791;28;20025;-75
2022/12/25 12:56:12;;;;;;;0.10;0.10;;;;;;;8.44;100.00;100982.94;5002334;28;20032;-71
2022/12/25 12:58:44;;;;;;;0.10;0.10;;;;;;;8.34;100.00;100967.50;4995847;28;20053;-75
2022/12/25 13:01:25;;;;;;;0.10;0.10;;;;;;;8.40;100.00;100972.44;4995672;28;20096;-75
2022/12/25 13:04:15;;;;;;;0.10;0.10;;;;;;;8.43;100.00;100983.91;4997227;28;20076;-75
2022/12/25 13:07:02;;;;;;;0.10;0.10;;;;;;;8.39;100.00;100968.03;4996447;28;20117;-75
2022/12/25 13:09:49;;;;;;;0.10;0.10;;;;;;;8.43;100.00;100970.53;4995916;28;20628;-75
2022/12/25 13:12:15;;;;;;;0.08;0.08;;;;;;;8.45;100.00;100966.81;4997513;28;20096;-75
2022/12/25 13:14:45;;;;;;;0.10;0.10;;;;;;;8.51;100.00;100966.41;5000599;28;20031;-75